sensor_id;sensor_type;location;lat;lon;timestamp;temperature;humidity
66594;DHT22;53450;42.584;23.366;2023-03-23T00:01:41;3.28;85.93
66594;DHT22;53450;42.584;23.366;2023-03-23T00:04:06;3.26;86.11
66594;DHT22;53450;42.584;23.366;2023-03-23T00:06:32;3.27;86.16
66594;DHT22;53450;42.584;23.366;2023-03-23T00:09:00;3.28;86.11
66594;DHT22;53450;42.584;23.366;2023-03-23T00:11:29;3.27;86.00
66594;DHT22;53450;42.584;23.366;2023-03-23T00:13:56;3.27;85.92
66594;DHT22;53450;42.584;23.366;2023-03-23T00:16:24;3.33;86.16
66594;DHT22;53450;42.584;23.366;2023-03-23T00:19:27;3.33;85.95
66594;DHT22;53450;42.584;23.366;2023-03-23T00:21:53;3.37;86.03
66594;DHT22;53450;42.584;23.366;2023-03-23T00:24:18;3.36;85.90
66594;DHT22;53450;42.584;23.366;2023-03-23T00:26:46;3.36;85.65
66594;DHT22;53450;42.584;23.366;2023-03-23T00:29:22;3.37;85.57
66594;DHT22;53450;42.584;23.366;2023-03-23T00:31:51;3.30;85.56
66594;DHT22;53450;42.584;23.366;2023-03-23T00:34:20;3.24;85.81
66594;DHT22;53450;42.584;23.366;2023-03-23T00:37:10;3.20;86.02
66594;DHT22;53450;42.584;23.366;2023-03-23T00:40:02;3.20;86.26
66594;DHT22;53450;42.584;23.366;2023-03-23T00:42:32;3.15;86.48
66594;DHT22;53450;42.584;23.366;2023-03-23T00:45:03;3.22;86.57
66594;DHT22;53450;42.584;23.366;2023-03-23T00:47:36;3.30;86.05
66594;DHT22;53450;42.584;23.366;2023-03-23T00:50:04;3.33;86.09
66594;DHT22;53450;42.584;23.366;2023-03-23T00:52:31;3.38;86.25
66594;DHT22;53450;42.584;23.366;2023-03-23T00:54:57;3.47;86.06
66594;DHT22;53450;42.584;23.366;2023-03-23T00:57:48;3.45;85.76
66594;DHT22;53450;42.584;23.366;2023-03-23T01:00:16;3.54;85.67
66594;DHT22;53450;42.584;23.366;2023-03-23T01:02:41;3.53;85.62
66594;DHT22;53450;42.584;23.366;2023-03-23T01:05:10;3.57;85.85
66594;DHT22;53450;42.584;23.366;2023-03-23T01:07:36;3.63;86.07
66594;DHT22;53450;42.584;23.366;2023-03-23T01:10:03;3.74;86.34
66594;DHT22;53450;42.584;23.366;2023-03-23T01:12:54;3.89;86.60
66594;DHT22;53450;42.584;23.366;2023-03-23T01:15:21;3.92;86.71
66594;DHT22;53450;42.584;23.366;2023-03-23T01:17:47;4.03;86.90
66594;DHT22;53450;42.584;23.366;2023-03-23T01:20:14;4.10;87.23
66594;DHT22;53450;42.584;23.366;2023-03-23T01:22:41;4.17;87.52
66594;DHT22;53450;42.584;23.366;2023-03-23T01:25:09;4.25;87.74
66594;DHT22;53450;42.584;23.366;2023-03-23T01:27:35;4.30;87.86
66594;DHT22;53450;42.584;23.366;2023-03-23T01:30:26;4.40;87.90
66594;DHT22;53450;42.584;23.366;2023-03-23T01:33:17;4.43;87.91
66594;DHT22;53450;42.584;23.366;2023-03-23T01:35:43;4.36;87.82
66594;DHT22;53450;42.584;23.366;2023-03-23T01:38:09;4.17;87.32
66594;DHT22;53450;42.584;23.366;2023-03-23T01:40:35;4.02;87.21
66594;DHT22;53450;42.584;23.366;2023-03-23T01:43:01;4.17;86.92
66594;DHT22;53450;42.584;23.366;2023-03-23T01:45:34;4.32;86.98
66594;DHT22;53450;42.584;23.366;2023-03-23T01:48:15;4.42;87.33
66594;DHT22;53450;42.584;23.366;2023-03-23T01:50:53;4.47;87.58
66594;DHT22;53450;42.584;23.366;2023-03-23T01:53:22;4.47;87.85
66594;DHT22;53450;42.584;23.366;2023-03-23T01:55:52;4.44;88.00
66594;DHT22;53450;42.584;23.366;2023-03-23T01:58:21;4.43;88.02
66594;DHT22;53450;42.584;23.366;2023-03-23T02:00:51;4.33;88.03
66594;DHT22;53450;42.584;23.366;2023-03-23T02:03:19;4.12;88.13
66594;DHT22;53450;42.584;23.366;2023-03-23T02:05:45;3.96;88.08
66594;DHT22;53450;42.584;23.366;2023-03-23T02:08:21;3.95;88.18
66594;DHT22;53450;42.584;23.366;2023-03-23T02:10:48;3.99;88.10
66594;DHT22;53450;42.584;23.366;2023-03-23T02:13:14;4.03;88.13
66594;DHT22;53450;42.584;23.366;2023-03-23T02:21:53;3.91;87.60
66594;DHT22;53450;42.584;23.366;2023-03-23T02:26:59;3.86;86.55
66594;DHT22;53450;42.584;23.366;2023-03-23T02:29:47;3.89;86.48
66594;DHT22;53450;42.584;23.366;2023-03-23T02:38:01;3.68;87.05
66594;DHT22;53450;42.584;23.366;2023-03-23T02:40:37;3.65;87.30
66594;DHT22;53450;42.584;23.366;2023-03-23T02:43:08;3.73;87.23
66594;DHT22;53450;42.584;23.366;2023-03-23T02:45:35;3.68;87.30
66594;DHT22;53450;42.584;23.366;2023-03-23T02:48:02;3.77;87.46
66594;DHT22;53450;42.584;23.366;2023-03-23T02:50:29;3.82;87.44
66594;DHT22;53450;42.584;23.366;2023-03-23T02:52:56;3.78;87.24
66594;DHT22;53450;42.584;23.366;2023-03-23T02:55:25;3.58;87.07
66594;DHT22;53450;42.584;23.366;2023-03-23T02:57:52;3.73;86.90
66594;DHT22;53450;42.584;23.366;2023-03-23T03:00:19;3.82;86.60
66594;DHT22;53450;42.584;23.366;2023-03-23T03:02:48;3.82;86.76
66594;DHT22;53450;42.584;23.366;2023-03-23T03:10:54;3.96;87.10
66594;DHT22;53450;42.584;23.366;2023-03-23T03:13:35;3.94;87.17
66594;DHT22;53450;42.584;23.366;2023-03-23T03:18:49;4.07;87.12
66594;DHT22;53450;42.584;23.366;2023-03-23T03:21:21;4.09;86.55
66594;DHT22;53450;42.584;23.366;2023-03-23T03:23:54;3.98;86.57
66594;DHT22;53450;42.584;23.366;2023-03-23T03:26:23;3.89;86.79
66594;DHT22;53450;42.584;23.366;2023-03-23T03:28:56;3.92;87.03
66594;DHT22;53450;42.584;23.366;2023-03-23T03:31:32;3.98;87.15
66594;DHT22;53450;42.584;23.366;2023-03-23T03:33:59;4.10;86.80
66594;DHT22;53450;42.584;23.366;2023-03-23T03:36:29;4.15;86.05
66594;DHT22;53450;42.584;23.366;2023-03-23T03:39:04;4.06;85.98
66594;DHT22;53450;42.584;23.366;2023-03-23T03:41:55;3.96;86.10
66594;DHT22;53450;42.584;23.366;2023-03-23T03:44:47;3.98;86.19
66594;DHT22;53450;42.584;23.366;2023-03-23T03:47:12;4.02;86.08
66594;DHT22;53450;42.584;23.366;2023-03-23T03:49:38;4.06;85.83
66594;DHT22;53450;42.584;23.366;2023-03-23T03:52:04;4.10;85.84
66594;DHT22;53450;42.584;23.366;2023-03-23T03:54:37;4.12;85.65
66594;DHT22;53450;42.584;23.366;2023-03-23T03:57:03;4.15;85.63
66594;DHT22;53450;42.584;23.366;2023-03-23T03:59:43;4.22;85.50
66594;DHT22;53450;42.584;23.366;2023-03-23T04:02:32;4.29;85.18
66594;DHT22;53450;42.584;23.366;2023-03-23T04:04:58;4.29;85.06
66594;DHT22;53450;42.584;23.366;2023-03-23T04:07:23;4.32;84.73
66594;DHT22;53450;42.584;23.366;2023-03-23T04:09:51;4.36;84.72
66594;DHT22;53450;42.584;23.366;2023-03-23T04:12:19;4.34;84.72
66594;DHT22;53450;42.584;23.366;2023-03-23T04:15:06;4.28;84.94
66594;DHT22;53450;42.584;23.366;2023-03-23T04:17:34;4.29;85.29
66594;DHT22;53450;42.584;23.366;2023-03-23T04:20:02;4.39;85.14
66594;DHT22;53450;42.584;23.366;2023-03-23T04:22:33;4.42;84.79
66594;DHT22;53450;42.584;23.366;2023-03-23T04:25:01;4.36;84.94
66594;DHT22;53450;42.584;23.366;2023-03-23T04:27:32;4.23;85.15
66594;DHT22;53450;42.584;23.366;2023-03-23T04:30:00;4.22;85.32
66594;DHT22;53450;42.584;23.366;2023-03-23T04:32:32;4.32;85.08
66594;DHT22;53450;42.584;23.366;2023-03-23T04:34:58;4.25;85.19
66594;DHT22;53450;42.584;23.366;2023-03-23T04:37:29;4.22;85.38
66594;DHT22;53450;42.584;23.366;2023-03-23T04:39:59;4.17;85.55
66594;DHT22;53450;42.584;23.366;2023-03-23T04:42:32;4.12;85.77
66594;DHT22;53450;42.584;23.366;2023-03-23T04:45:21;4.19;85.99
66594;DHT22;53450;42.584;23.366;2023-03-23T04:47:51;4.22;85.95
66594;DHT22;53450;42.584;23.366;2023-03-23T04:50:30;4.17;86.15
66594;DHT22;53450;42.584;23.366;2023-03-23T04:53:04;4.05;86.28
66594;DHT22;53450;42.584;23.366;2023-03-23T04:55:32;4.25;86.30
66594;DHT22;53450;42.584;23.366;2023-03-23T04:58:06;4.30;86.48
66594;DHT22;53450;42.584;23.366;2023-03-23T05:00:37;4.29;86.64
66594;DHT22;53450;42.584;23.366;2023-03-23T05:03:04;4.16;86.48
66594;DHT22;53450;42.584;23.366;2023-03-23T05:05:31;4.32;86.33
66594;DHT22;53450;42.584;23.366;2023-03-23T05:08:03;4.43;86.54
66594;DHT22;53450;42.584;23.366;2023-03-23T05:10:32;4.44;86.64
66594;DHT22;53450;42.584;23.366;2023-03-23T05:13:04;4.47;86.85
66594;DHT22;53450;42.584;23.366;2023-03-23T05:15:30;4.60;86.86
66594;DHT22;53450;42.584;23.366;2023-03-23T05:17:57;4.75;86.34
66594;DHT22;53450;42.584;23.366;2023-03-23T05:20:24;4.87;86.27
66594;DHT22;53450;42.584;23.366;2023-03-23T05:22:55;4.96;86.20
66594;DHT22;53450;42.584;23.366;2023-03-23T05:25:27;4.99;86.21
66594;DHT22;53450;42.584;23.366;2023-03-23T05:28:03;5.08;86.24
66594;DHT22;53450;42.584;23.366;2023-03-23T05:30:49;5.11;86.34
66594;DHT22;53450;42.584;23.366;2023-03-23T05:33:16;5.08;86.40
66594;DHT22;53450;42.584;23.366;2023-03-23T05:35:49;5.12;86.46
66594;DHT22;53450;42.584;23.366;2023-03-23T05:38:19;5.25;86.40
66594;DHT22;53450;42.584;23.366;2023-03-23T05:40:45;5.38;86.19
66594;DHT22;53450;42.584;23.366;2023-03-23T05:43:16;5.46;85.69
66594;DHT22;53450;42.584;23.366;2023-03-23T05:46:01;5.62;84.85
66594;DHT22;53450;42.584;23.366;2023-03-23T05:48:28;5.64;85.08
66594;DHT22;53450;42.584;23.366;2023-03-23T05:50:54;5.70;85.17
66594;DHT22;53450;42.584;23.366;2023-03-23T05:53:23;5.80;84.78
66594;DHT22;53450;42.584;23.366;2023-03-23T05:55:49;5.95;83.99
66594;DHT22;53450;42.584;23.366;2023-03-23T05:58:34;6.11;82.88
66594;DHT22;53450;42.584;23.366;2023-03-23T06:01:00;6.24;82.87
66594;DHT22;53450;42.584;23.366;2023-03-23T06:03:28;6.22;83.93
66594;DHT22;53450;42.584;23.366;2023-03-23T06:06:00;6.32;83.89
66594;DHT22;53450;42.584;23.366;2023-03-23T06:08:33;6.53;83.27
66594;DHT22;53450;42.584;23.366;2023-03-23T06:10:59;6.68;82.71
66594;DHT22;53450;42.584;23.366;2023-03-23T06:13:25;6.86;81.98
66594;DHT22;53450;42.584;23.366;2023-03-23T06:15:55;7.00;81.46
66594;DHT22;53450;42.584;23.366;2023-03-23T06:18:42;7.15;82.07
66594;DHT22;53450;42.584;23.366;2023-03-23T06:21:14;7.34;81.75
66594;DHT22;53450;42.584;23.366;2023-03-23T06:23:48;7.47;79.15
66594;DHT22;53450;42.584;23.366;2023-03-23T06:26:19;7.61;74.93
66594;DHT22;53450;42.584;23.366;2023-03-23T06:28:49;7.76;74.84
66594;DHT22;53450;42.584;23.366;2023-03-23T06:31:15;7.87;72.53
66594;DHT22;53450;42.584;23.366;2023-03-23T06:33:43;7.97;72.84
66594;DHT22;53450;42.584;23.366;2023-03-23T06:36:24;8.20;70.39
66594;DHT22;53450;42.584;23.366;2023-03-23T06:39:15;8.30;70.84
66594;DHT22;53450;42.584;23.366;2023-03-23T06:41:52;8.28;68.20
66594;DHT22;53450;42.584;23.366;2023-03-23T06:44:18;8.47;67.84
66594;DHT22;53450;42.584;23.366;2023-03-23T06:46:43;8.57;68.67
66594;DHT22;53450;42.584;23.366;2023-03-23T06:49:18;8.57;66.87
66594;DHT22;53450;42.584;23.366;2023-03-23T06:51:52;8.79;68.24
66594;DHT22;53450;42.584;23.366;2023-03-23T06:54:18;8.98;69.97
66594;DHT22;53450;42.584;23.366;2023-03-23T06:56:44;9.07;69.53
66594;DHT22;53450;42.584;23.366;2023-03-23T06:59:09;9.17;67.26
66594;DHT22;53450;42.584;23.366;2023-03-23T07:01:37;9.15;67.44
66594;DHT22;53450;42.584;23.366;2023-03-23T07:04:03;9.16;66.17
66594;DHT22;53450;42.584;23.366;2023-03-23T07:06:44;9.31;70.52
66594;DHT22;53450;42.584;23.366;2023-03-23T07:09:11;9.38;67.17
66594;DHT22;53450;42.584;23.366;2023-03-23T07:11:36;9.44;70.12
66594;DHT22;53450;42.584;23.366;2023-03-23T07:14:11;9.38;66.75
66594;DHT22;53450;42.584;23.366;2023-03-23T07:16:37;9.33;64.19
66594;DHT22;53450;42.584;23.366;2023-03-23T07:19:06;9.22;65.95
66594;DHT22;53450;42.584;23.366;2023-03-23T07:21:32;9.12;65.01
66594;DHT22;53450;42.584;23.366;2023-03-23T07:23:57;8.96;65.31
66594;DHT22;53450;42.584;23.366;2023-03-23T07:26:49;8.82;64.23
66594;DHT22;53450;42.584;23.366;2023-03-23T07:29:15;8.80;65.21
66594;DHT22;53450;42.584;23.366;2023-03-23T07:31:44;8.65;65.75
66594;DHT22;53450;42.584;23.366;2023-03-23T07:34:10;8.78;67.71
66594;DHT22;53450;42.584;23.366;2023-03-23T07:37:02;8.69;66.46
66594;DHT22;53450;42.584;23.366;2023-03-23T07:39:32;8.62;67.37
66594;DHT22;53450;42.584;23.366;2023-03-23T07:42:00;8.71;67.02
66594;DHT22;53450;42.584;23.366;2023-03-23T07:44:48;8.64;66.95
66594;DHT22;53450;42.584;23.366;2023-03-23T07:47:39;8.57;65.73
66594;DHT22;53450;42.584;23.366;2023-03-23T07:50:06;8.71;65.96
66594;DHT22;53450;42.584;23.366;2023-03-23T07:52:39;8.69;65.58
66594;DHT22;53450;42.584;23.366;2023-03-23T07:55:09;8.64;64.95
66594;DHT22;53450;42.584;23.366;2023-03-23T07:58:00;8.76;65.44
66594;DHT22;53450;42.584;23.366;2023-03-23T08:00:26;8.62;64.68
66594;DHT22;53450;42.584;23.366;2023-03-23T08:02:55;8.71;62.94
66594;DHT22;53450;42.584;23.366;2023-03-23T08:05:42;8.83;64.29
66594;DHT22;53450;42.584;23.366;2023-03-23T08:08:26;8.88;63.45
66594;DHT22;53450;42.584;23.366;2023-03-23T08:11:11;8.83;62.80
66594;DHT22;53450;42.584;23.366;2023-03-23T08:13:39;8.90;64.08
66594;DHT22;53450;42.584;23.366;2023-03-23T08:16:25;8.80;62.47
66594;DHT22;53450;42.584;23.366;2023-03-23T08:19:03;8.73;63.59
66594;DHT22;53450;42.584;23.366;2023-03-23T08:21:49;8.76;64.31
66594;DHT22;53450;42.584;23.366;2023-03-23T08:24:33;8.75;63.31
66594;DHT22;53450;42.584;23.366;2023-03-23T08:27:19;8.89;64.39
66594;DHT22;53450;42.584;23.366;2023-03-23T08:30:04;8.98;65.39
66594;DHT22;53450;42.584;23.366;2023-03-23T08:32:57;8.95;64.08
66594;DHT22;53450;42.584;23.366;2023-03-23T08:35:36;9.03;63.04
66594;DHT22;53450;42.584;23.366;2023-03-23T08:38:20;9.05;63.42
66594;DHT22;53450;42.584;23.366;2023-03-23T08:41:06;9.09;62.39
66594;DHT22;53450;42.584;23.366;2023-03-23T08:43:58;9.37;63.24
66594;DHT22;53450;42.584;23.366;2023-03-23T08:46:33;9.64;62.97
66594;DHT22;53450;42.584;23.366;2023-03-23T08:49:24;9.75;62.04
66594;DHT22;53450;42.584;23.366;2023-03-23T08:52:29;9.75;61.45
66594;DHT22;53450;42.584;23.366;2023-03-23T08:55:18;9.57;61.74
66594;DHT22;53450;42.584;23.366;2023-03-23T08:57:54;9.68;63.13
66594;DHT22;53450;42.584;23.366;2023-03-23T09:00:52;10.12;61.93
66594;DHT22;53450;42.584;23.366;2023-03-23T09:03:28;10.36;63.57
66594;DHT22;53450;42.584;23.366;2023-03-23T09:06:10;10.45;61.24
66594;DHT22;53450;42.584;23.366;2023-03-23T09:08:47;10.57;61.33
66594;DHT22;53450;42.584;23.366;2023-03-23T09:11:13;10.67;59.96
66594;DHT22;53450;42.584;23.366;2023-03-23T09:13:39;10.43;60.39
66594;DHT22;53450;42.584;23.366;2023-03-23T09:16:06;10.40;61.06
66594;DHT22;53450;42.584;23.366;2023-03-23T09:18:32;10.52;62.30
66594;DHT22;53450;42.584;23.366;2023-03-23T09:20:59;10.37;59.60
66594;DHT22;53450;42.584;23.366;2023-03-23T09:23:25;10.39;59.18
66594;DHT22;53450;42.584;23.366;2023-03-23T09:25:51;10.33;58.80
66594;DHT22;53450;42.584;23.366;2023-03-23T09:28:18;10.39;57.82
66594;DHT22;53450;42.584;23.366;2023-03-23T09:30:43;10.37;59.44
66594;DHT22;53450;42.584;23.366;2023-03-23T09:33:11;10.29;59.33
66594;DHT22;53450;42.584;23.366;2023-03-23T09:35:37;10.33;59.39
66594;DHT22;53450;42.584;23.366;2023-03-23T11:12:45;12.42;55.61
66594;DHT22;53450;42.584;23.366;2023-03-23T13:06:55;12.86;52.05
66594;DHT22;53450;42.584;23.366;2023-03-23T13:39:30;12.58;53.66
66594;DHT22;53450;42.584;23.366;2023-03-23T13:50:48;12.56;52.42
66594;DHT22;53450;42.584;23.366;2023-03-23T13:52:54;12.41;53.69
66594;DHT22;53450;42.584;23.366;2023-03-23T13:55:31;12.48;53.94
66594;DHT22;53450;42.584;23.366;2023-03-23T14:03:46;12.99;51.73
66594;DHT22;53450;42.584;23.366;2023-03-23T14:06:12;13.09;52.81
66594;DHT22;53450;42.584;23.366;2023-03-23T14:09:07;13.14;52.37
66594;DHT22;53450;42.584;23.366;2023-03-23T14:11:48;13.26;52.14
66594;DHT22;53450;42.584;23.366;2023-03-23T14:14:26;13.13;52.18
66594;DHT22;53450;42.584;23.366;2023-03-23T14:17:25;13.07;52.79
66594;DHT22;53450;42.584;23.366;2023-03-23T14:19:53;12.82;53.27
66594;DHT22;53450;42.584;23.366;2023-03-23T14:22:32;13.03;53.75
66594;DHT22;53450;42.584;23.366;2023-03-23T14:25:09;13.11;53.10
66594;DHT22;53450;42.584;23.366;2023-03-23T14:27:36;13.07;52.79
66594;DHT22;53450;42.584;23.366;2023-03-23T14:30:05;13.06;52.71
66594;DHT22;53450;42.584;23.366;2023-03-23T14:32:32;12.89;52.70
66594;DHT22;53450;42.584;23.366;2023-03-23T14:34:59;13.02;53.43
66594;DHT22;53450;42.584;23.366;2023-03-23T14:37:26;12.79;53.70
66594;DHT22;53450;42.584;23.366;2023-03-23T14:39:55;12.66;54.30
66594;DHT22;53450;42.584;23.366;2023-03-23T14:42:33;12.44;54.62
66594;DHT22;53450;42.584;23.366;2023-03-23T14:45:00;12.41;53.93
66594;DHT22;53450;42.584;23.366;2023-03-23T14:47:33;12.56;54.60
66594;DHT22;53450;42.584;23.366;2023-03-23T14:50:03;12.72;54.01
66594;DHT22;53450;42.584;23.366;2023-03-23T14:52:35;12.76;54.07
66594;DHT22;53450;42.584;23.366;2023-03-23T14:55:13;12.72;53.32
66594;DHT22;53450;42.584;23.366;2023-03-23T14:57:42;12.72;54.06
66594;DHT22;53450;42.584;23.366;2023-03-23T15:02:41;12.69;54.31
66594;DHT22;53450;42.584;23.366;2023-03-23T15:05:16;12.83;53.95
66594;DHT22;53450;42.584;23.366;2023-03-23T15:07:47;12.76;53.99
66594;DHT22;53450;42.584;23.366;2023-03-23T15:10:18;12.73;54.46
66594;DHT22;53450;42.584;23.366;2023-03-23T15:12:51;12.66;53.89
66594;DHT22;53450;42.584;23.366;2023-03-23T15:15:33;12.71;54.35
66594;DHT22;53450;42.584;23.366;2023-03-23T15:18:00;12.68;53.94
66594;DHT22;53450;42.584;23.366;2023-03-23T15:20:32;12.75;53.90
66594;DHT22;53450;42.584;23.366;2023-03-23T15:23:15;12.76;53.60
66594;DHT22;53450;42.584;23.366;2023-03-23T15:25:48;12.88;53.60
66594;DHT22;53450;42.584;23.366;2023-03-23T15:28:20;12.80;54.57
66594;DHT22;53450;42.584;23.366;2023-03-23T15:30:51;12.66;54.12
66594;DHT22;53450;42.584;23.366;2023-03-23T15:33:18;12.52;54.74
66594;DHT22;53450;42.584;23.366;2023-03-23T15:35:52;12.63;54.86
66594;DHT22;53450;42.584;23.366;2023-03-23T15:38:25;12.68;53.55
66594;DHT22;53450;42.584;23.366;2023-03-23T15:40:54;12.73;53.40
66594;DHT22;53450;42.584;23.366;2023-03-23T15:43:27;12.68;52.93
66594;DHT22;53450;42.584;23.366;2023-03-23T15:46:02;12.59;53.15
66594;DHT22;53450;42.584;23.366;2023-03-23T15:48:45;12.55;55.82
66594;DHT22;53450;42.584;23.366;2023-03-23T15:51:11;12.10;57.08
66594;DHT22;53450;42.584;23.366;2023-03-23T15:53:39;11.80;58.38
66594;DHT22;53450;42.584;23.366;2023-03-23T15:56:06;11.49;60.52
66594;DHT22;53450;42.584;23.366;2023-03-23T15:58:33;11.25;61.01
66594;DHT22;53450;42.584;23.366;2023-03-23T16:01:02;11.11;61.94
66594;DHT22;53450;42.584;23.366;2023-03-23T16:03:39;10.87;62.25
66594;DHT22;53450;42.584;23.366;2023-03-23T16:06:10;10.70;62.50
66594;DHT22;53450;42.584;23.366;2023-03-23T16:08:36;10.59;62.97
66594;DHT22;53450;42.584;23.366;2023-03-23T16:11:09;10.40;63.43
66594;DHT22;53450;42.584;23.366;2023-03-23T16:13:35;10.32;63.98
66594;DHT22;53450;42.584;23.366;2023-03-23T16:16:01;10.35;64.01
66594;DHT22;53450;42.584;23.366;2023-03-23T16:18:27;10.32;63.67
66594;DHT22;53450;42.584;23.366;2023-03-23T16:20:52;10.20;63.54
66594;DHT22;53450;42.584;23.366;2023-03-23T16:23:43;10.12;64.00
66594;DHT22;53450;42.584;23.366;2023-03-23T16:26:11;10.02;63.78
66594;DHT22;53450;42.584;23.366;2023-03-23T16:28:37;9.99;63.79
66594;DHT22;53450;42.584;23.366;2023-03-23T16:31:03;9.94;63.42
66594;DHT22;53450;42.584;23.366;2023-03-23T16:33:29;9.88;63.74
66594;DHT22;53450;42.584;23.366;2023-03-23T16:35:54;9.87;62.81
66594;DHT22;53450;42.584;23.366;2023-03-23T16:38:21;9.79;63.93
66594;DHT22;53450;42.584;23.366;2023-03-23T16:40:47;9.70;63.34
66594;DHT22;53450;42.584;23.366;2023-03-23T16:43:13;9.62;63.27
66594;DHT22;53450;42.584;23.366;2023-03-23T16:45:41;9.57;62.85
66594;DHT22;53450;42.584;23.366;2023-03-23T16:48:08;9.51;63.11
66594;DHT22;53450;42.584;23.366;2023-03-23T16:50:36;9.48;62.67
66594;DHT22;53450;42.584;23.366;2023-03-23T16:53:03;9.44;63.21
66594;DHT22;53450;42.584;23.366;2023-03-23T16:55:39;9.46;63.26
66594;DHT22;53450;42.584;23.366;2023-03-23T16:58:08;9.43;62.20
66594;DHT22;53450;42.584;23.366;2023-03-23T17:00:45;9.36;63.04
66594;DHT22;53450;42.584;23.366;2023-03-23T17:03:11;9.30;63.64
66594;DHT22;53450;42.584;23.366;2023-03-23T17:05:37;9.27;63.41
66594;DHT22;53450;42.584;23.366;2023-03-23T17:08:03;9.30;63.49
66594;DHT22;53450;42.584;23.366;2023-03-23T17:10:30;9.26;63.46
66594;DHT22;53450;42.584;23.366;2023-03-23T17:12:56;9.17;63.41
66594;DHT22;53450;42.584;23.366;2023-03-23T17:15:22;9.16;62.88
66594;DHT22;53450;42.584;23.366;2023-03-23T17:17:50;9.07;64.49
66594;DHT22;53450;42.584;23.366;2023-03-23T17:20:17;9.00;64.41
66594;DHT22;53450;42.584;23.366;2023-03-23T17:22:42;8.67;65.11
66594;DHT22;53450;42.584;23.366;2023-03-23T17:25:09;8.44;65.10
66594;DHT22;53450;42.584;23.366;2023-03-23T17:27:35;8.31;65.31
66594;DHT22;53450;42.584;23.366;2023-03-23T17:30:03;8.20;66.14
66594;DHT22;53450;42.584;23.366;2023-03-23T17:32:35;8.13;66.96
66594;DHT22;53450;42.584;23.366;2023-03-23T17:35:06;8.11;66.80
66594;DHT22;53450;42.584;23.366;2023-03-23T17:37:34;8.04;67.53
66594;DHT22;53450;42.584;23.366;2023-03-23T17:40:01;8.03;66.95
66594;DHT22;53450;42.584;23.366;2023-03-23T17:42:28;7.99;67.50
66594;DHT22;53450;42.584;23.366;2023-03-23T17:44:54;7.72;67.78
66594;DHT22;53450;42.584;23.366;2023-03-23T17:47:20;7.83;68.20
66594;DHT22;53450;42.584;23.366;2023-03-23T17:49:45;7.75;68.39
66594;DHT22;53450;42.584;23.366;2023-03-23T17:52:37;7.63;68.85
66594;DHT22;53450;42.584;23.366;2023-03-23T17:55:04;7.45;68.02
66594;DHT22;53450;42.584;23.366;2023-03-23T17:57:29;7.25;68.52
66594;DHT22;53450;42.584;23.366;2023-03-23T17:59:56;7.30;68.88
66594;DHT22;53450;42.584;23.366;2023-03-23T18:02:21;7.32;69.59
66594;DHT22;53450;42.584;23.366;2023-03-23T18:04:47;7.28;70.55
66594;DHT22;53450;42.584;23.366;2023-03-23T18:07:13;7.21;70.24
66594;DHT22;53450;42.584;23.366;2023-03-23T18:10:04;7.03;70.78
66594;DHT22;53450;42.584;23.366;2023-03-23T18:12:37;6.94;71.48
66594;DHT22;53450;42.584;23.366;2023-03-23T18:15:05;6.86;70.82
66594;DHT22;53450;42.584;23.366;2023-03-23T18:17:31;6.79;71.29
66594;DHT22;53450;42.584;23.366;2023-03-23T18:19:57;6.89;71.32
66594;DHT22;53450;42.584;23.366;2023-03-23T18:22:23;6.94;71.66
66594;DHT22;53450;42.584;23.366;2023-03-23T18:24:49;6.97;70.70
66594;DHT22;53450;42.584;23.366;2023-03-23T18:27:15;6.89;70.87
66594;DHT22;53450;42.584;23.366;2023-03-23T18:29:42;7.00;70.98
66594;DHT22;53450;42.584;23.366;2023-03-23T18:32:11;7.14;71.15
66594;DHT22;53450;42.584;23.366;2023-03-23T18:34:39;7.15;71.00
66594;DHT22;53450;42.584;23.366;2023-03-23T18:37:05;7.10;70.09
66594;DHT22;53450;42.584;23.366;2023-03-23T18:39:32;6.99;70.98
66594;DHT22;53450;42.584;23.366;2023-03-23T18:42:02;6.90;71.50
66594;DHT22;53450;42.584;23.366;2023-03-23T18:44:28;6.77;71.25
66594;DHT22;53450;42.584;23.366;2023-03-23T18:46:54;6.53;71.32
66594;DHT22;53450;42.584;23.366;2023-03-23T18:49:21;6.60;71.50
66594;DHT22;53450;42.584;23.366;2023-03-23T18:51:46;6.69;72.57
66594;DHT22;53450;42.584;23.366;2023-03-23T18:54:12;6.63;72.42
66594;DHT22;53450;42.584;23.366;2023-03-23T18:56:38;6.57;72.99
66594;DHT22;53450;42.584;23.366;2023-03-23T18:59:04;6.48;72.66
66594;DHT22;53450;42.584;23.366;2023-03-23T19:01:31;6.48;72.49
66594;DHT22;53450;42.584;23.366;2023-03-23T19:03:56;6.39;72.89
66594;DHT22;53450;42.584;23.366;2023-03-23T19:06:24;6.39;73.16
66594;DHT22;53450;42.584;23.366;2023-03-23T19:08:51;6.29;73.07
66594;DHT22;53450;42.584;23.366;2023-03-23T19:11:18;6.25;73.18
66594;DHT22;53450;42.584;23.366;2023-03-23T19:13:44;6.21;73.55
66594;DHT22;53450;42.584;23.366;2023-03-23T19:16:10;6.20;73.68
66594;DHT22;53450;42.584;23.366;2023-03-23T19:18:36;6.21;74.01
66594;DHT22;53450;42.584;23.366;2023-03-23T19:21:02;6.15;73.90
66594;DHT22;53450;42.584;23.366;2023-03-23T19:23:28;6.12;73.97
66594;DHT22;53450;42.584;23.366;2023-03-23T19:25:54;6.14;74.15
66594;DHT22;53450;42.584;23.366;2023-03-23T19:28:20;6.12;74.25
66594;DHT22;53450;42.584;23.366;2023-03-23T19:30:48;6.05;74.43
66594;DHT22;53450;42.584;23.366;2023-03-23T19:33:15;6.05;74.62
66594;DHT22;53450;42.584;23.366;2023-03-23T19:35:41;6.04;74.94
66594;DHT22;53450;42.584;23.366;2023-03-23T19:38:07;6.04;74.43
66594;DHT22;53450;42.584;23.366;2023-03-23T19:40:34;6.12;73.87
66594;DHT22;53450;42.584;23.366;2023-03-23T19:43:04;6.12;73.90
66594;DHT22;53450;42.584;23.366;2023-03-23T19:45:30;6.04;74.30
66594;DHT22;53450;42.584;23.366;2023-03-23T19:48:21;6.05;74.21
66594;DHT22;53450;42.584;23.366;2023-03-23T19:50:49;6.11;74.27
66594;DHT22;53450;42.584;23.366;2023-03-23T19:53:42;6.02;74.62
66594;DHT22;53450;42.584;23.366;2023-03-23T19:56:13;5.87;74.87
66594;DHT22;53450;42.584;23.366;2023-03-23T19:58:39;5.64;74.77
66594;DHT22;53450;42.584;23.366;2023-03-23T20:01:05;5.59;75.05
66594;DHT22;53450;42.584;23.366;2023-03-23T20:03:31;5.49;75.41
66594;DHT22;53450;42.584;23.366;2023-03-23T20:06:01;5.42;75.38
66594;DHT22;53450;42.584;23.366;2023-03-23T20:08:27;5.31;76.05
66594;DHT22;53450;42.584;23.366;2023-03-23T20:11:03;5.25;76.49
66594;DHT22;53450;42.584;23.366;2023-03-23T20:13:30;5.18;76.90
66594;DHT22;53450;42.584;23.366;2023-03-23T20:15:57;5.07;77.09
66594;DHT22;53450;42.584;23.366;2023-03-23T20:18:22;4.98;77.16
66594;DHT22;53450;42.584;23.366;2023-03-23T20:20:48;4.95;76.79
66594;DHT22;53450;42.584;23.366;2023-03-23T20:23:14;4.89;77.06
66594;DHT22;53450;42.584;23.366;2023-03-23T20:25:40;4.94;77.02
66594;DHT22;53450;42.584;23.366;2023-03-23T20:28:05;4.87;77.36
66594;DHT22;53450;42.584;23.366;2023-03-23T20:30:31;4.85;77.56